Time;durP1;ratioP1;P1;durP2;ratioP2;P2;SDS_P1;SDS_P2;PMS_P1;PMS_P2;Temp;Humidity;BMP_temperature;BMP_pressure;BME280_temperature;BME280_humidity;BME280_pressure;Samples;Min_cycle;Max_cycle;Signal;HPM_P1;HPM_P2
2023/02/11 00:01:29;;;;;;;27.63;14.20;;;;;;;10.33;57.59;103378.88;4829725;29;113554;-75
2023/02/11 00:03:57;;;;;;;27.02;13.88;;;;;;;10.35;57.52;103375.34;4847758;29;123430;-75
2023/02/11 00:06:29;;;;;;;28.90;13.93;;;;;;;10.35;57.53;103372.69;4849736;28;122638;-74
2023/02/11 00:08:56;;;;;;;30.95;13.20;;;;;;;10.35;57.24;103372.69;4829990;29;116035;-76
2023/02/11 00:11:29;;;;;;;28.38;14.57;;;;;;;10.33;57.22;103357.69;4827849;29;115383;-73
2023/02/11 00:13:58;;;;;;;31.80;13.65;;;;;;;10.32;57.70;103355.94;4829377;29;124114;-74
2023/02/11 00:16:26;;;;;;;22.45;12.45;;;;;;;10.32;57.45;103366.53;4830098;29;124155;-74
2023/02/11 00:18:54;;;;;;;25.02;12.65;;;;;;;10.30;57.44;103357.72;4835741;29;113535;-72
2023/02/11 00:21:23;;;;;;;26.50;12.57;;;;;;;10.30;57.40;103352.41;4833791;29;114271;-74
2023/02/11 00:23:51;;;;;;;21.35;11.50;;;;;;;10.30;57.34;103363.00;4820306;29;124347;-74
2023/02/11 00:26:24;;;;;;;22.38;11.60;;;;;;;10.30;57.50;103368.31;4832005;29;124439;-73
2023/02/11 00:28:52;;;;;;;20.60;11.50;;;;;;;10.30;57.63;103373.59;4821436;29;113060;-73
2023/02/11 00:31:21;;;;;;;23.75;11.48;;;;;;;10.33;57.62;103356.81;4833278;29;114168;-73
2023/02/11 00:33:49;;;;;;;24.73;10.35;;;;;;;10.32;57.57;103355.03;4820784;29;122979;-76
2023/02/11 00:36:21;;;;;;;18.65;10.50;;;;;;;10.31;57.46;103348.88;4837283;29;123461;-74
2023/02/11 00:38:50;;;;;;;20.27;10.68;;;;;;;10.31;57.25;103359.47;4823947;29;114435;-73
2023/02/11 00:41:18;;;;;;;23.40;10.63;;;;;;;10.30;57.45;103352.41;4837837;29;113454;-74
2023/02/11 00:43:46;;;;;;;21.10;10.68;;;;;;;10.29;57.51;103355.91;4834921;29;123885;-74
2023/02/11 00:46:14;;;;;;;21.58;10.57;;;;;;;10.30;57.35;103357.72;4838522;28;123463;-75
2023/02/11 00:48:42;;;;;;;18.70;9.10;;;;;;;10.30;57.57;103357.72;4833277;29;114631;-74
2023/02/11 00:51:11;;;;;;;22.02;9.80;;;;;;;10.31;57.34;103359.47;4833406;29;113869;-74
2023/02/11 00:53:39;;;;;;;17.77;9.98;;;;;;;10.31;57.38;103359.47;4841315;28;123082;-74
2023/02/11 00:56:08;;;;;;;17.65;9.43;;;;;;;10.33;57.47;103356.81;4829635;29;97770;-75
2023/02/11 00:58:35;;;;;;;21.38;9.18;;;;;;;10.33;57.31;103351.50;4835851;29;115533;-74
2023/02/11 01:01:03;;;;;;;22.02;9.32;;;;;;;10.32;57.25;103366.53;4827849;29;115285;-73
2023/02/11 01:03:32;;;;;;;20.77;9.63;;;;;;;10.31;57.39;103364.75;4825261;29;123631;-73
2023/02/11 01:06:00;;;;;;;19.05;9.27;;;;;;;10.32;57.31;103369.19;4835883;29;123241;-74
2023/02/11 01:08:27;;;;;;;18.02;9.18;;;;;;;10.32;57.42;103361.22;4829642;29;114640;-73
2023/02/11 01:10:56;;;;;;;18.77;9.02;;;;;;;10.33;57.43;103367.41;4829846;29;113357;-72
2023/02/11 01:13:25;;;;;;;19.35;9.27;;;;;;;10.32;57.25;103371.81;4831432;29;124632;-73
2023/02/11 01:15:55;;;;;;;17.45;8.85;;;;;;;10.32;56.98;103373.56;4828230;29;124019;-73
2023/02/11 01:18:24;;;;;;;16.65;8.63;;;;;;;10.31;57.52;103375.34;4833518;29;113472;-73
2023/02/11 01:20:52;;;;;;;18.83;8.20;;;;;;;10.31;57.28;103380.66;4826337;29;113036;-73
2023/02/11 01:23:20;;;;;;;19.23;8.80;;;;;;;10.32;57.31;103377.13;4827964;29;124257;-74
2023/02/11 01:25:48;;;;;;;16.80;8.93;;;;;;;10.30;57.34;103373.59;4830123;29;123479;-73
2023/02/11 01:28:19;;;;;;;18.73;8.55;;;;;;;10.31;57.71;103380.66;4828521;29;113051;-74
2023/02/11 01:30:46;;;;;;;20.15;8.50;;;;;;;10.30;57.07;103368.31;4834367;28;113398;-73
2023/02/11 01:33:13;;;;;;;15.55;8.02;;;;;;;10.30;57.25;103357.72;4833715;29;124305;-73
2023/02/11 01:35:43;;;;;;;22.58;9.27;;;;;;;10.29;57.10;103345.31;4834089;29;123320;-75
2023/02/11 01:38:17;;;;;;;18.60;8.60;;;;;;;10.27;57.33;103352.38;4830655;29;114119;-73
2023/02/11 01:40:50;;;;;;;16.38;7.63;;;;;;;10.27;57.21;103347.06;4830480;29;114351;-74
2023/02/11 01:43:17;;;;;;;14.43;7.63;;;;;;;10.28;57.25;103338.25;4830022;29;122968;-74
2023/02/11 01:45:47;;;;;;;19.00;8.00;;;;;;;10.27;57.05;103323.25;4830736;29;124108;-75
2023/02/11 01:48:26;;;;;;;15.48;7.82;;;;;;;10.27;57.24;103307.34;4830503;29;114269;-74
2023/02/11 01:50:59;;;;;;;19.48;8.35;;;;;;;10.27;57.01;103302.06;4829219;29;115246;-74
2023/02/11 01:59:16;;;;;;;17.50;7.47;;;;;;;10.19;57.42;103314.47;4836856;29;113615;-74
2023/02/11 02:01:51;;;;;;;15.25;8.70;;;;;;;10.19;57.12;103316.19;4844643;28;112941;-74
2023/02/11 02:04:22;;;;;;;18.10;7.53;;;;;;;10.17;57.24;103317.97;4835804;29;124242;-74
2023/02/11 02:06:54;;;;;;;17.60;7.45;;;;;;;10.16;57.30;103317.09;4835424;29;124076;-74
2023/02/11 02:09:27;;;;;;;15.88;7.57;;;;;;;10.14;57.31;103337.41;4851772;29;113162;-74
2023/02/11 02:11:54;;;;;;;21.05;7.05;;;;;;;10.12;57.23;103353.31;4833383;29;114206;-74
2023/02/11 02:14:22;;;;;;;16.10;7.32;;;;;;;10.14;57.11;103362.13;4831901;29;124123;-74
2023/02/11 02:16:53;;;;;;;14.00;6.55;;;;;;;10.14;57.34;103355.94;4824513;29;124320;-74
2023/02/11 02:19:54;;;;;;;20.20;7.43;;;;;;;10.13;57.38;103340.94;4834611;29;114301;-75
2023/02/11 02:22:45;;;;;;;13.50;6.85;;;;;;;10.13;57.16;103338.28;4836487;29;114637;-75
2023/02/11 02:25:56;;;;;;;13.95;7.15;;;;;;;10.12;57.22;103341.84;4828579;29;124127;-73
2023/02/11 02:29:18;;;;;;;14.90;7.43;;;;;;;10.10;57.33;103317.13;4831964;29;124081;-74
2023/02/11 02:32:02;;;;;;;19.00;7.97;;;;;;;10.11;57.37;103297.69;4770233;29;114375;-75
2023/02/11 02:34:40;;;;;;;17.25;6.80;;;;;;;10.09;57.46;103299.47;4771805;29;113934;-75
2023/02/11 02:37:35;;;;;;;14.68;7.40;;;;;;;10.08;57.47;103313.63;4821446;29;124435;-74
2023/02/11 02:40:11;;;;;;;18.30;7.78;;;;;;;10.07;57.38;103301.25;4824816;29;124217;-72
2023/02/11 02:42:40;;;;;;;15.48;7.65;;;;;;;10.08;57.30;103297.72;4827091;29;115122;-73
2023/02/11 02:45:09;;;;;;;19.70;8.20;;;;;;;10.09;57.52;103310.06;4839297;29;114807;-74
2023/02/11 02:47:36;;;;;;;17.30;8.20;;;;;;;10.09;57.38;103321.53;4836139;29;123909;-74
2023/02/11 02:50:06;;;;;;;17.95;8.30;;;;;;;10.11;57.52;103329.47;4831006;29;122621;-73
2023/02/11 02:52:36;;;;;;;16.05;8.05;;;;;;;10.10;57.44;103319.78;4838178;29;114415;-73
2023/02/11 02:55:52;;;;;;;15.32;7.85;;;;;;;10.09;57.43;103325.94;4834519;29;114590;-73
2023/02/11 02:58:48;;;;;;;14.50;7.20;;;;;;;10.08;57.56;103324.19;4846120;29;123990;-73
2023/02/11 03:01:53;;;;;;;16.23;8.05;;;;;;;10.06;57.19;103318.03;4838340;29;123665;-74
2023/02/11 03:04:36;;;;;;;18.27;7.85;;;;;;;10.05;57.40;103308.31;4823462;29;113819;-74
2023/02/11 03:07:12;;;;;;;16.95;8.15;;;;;;;10.05;57.60;103308.31;4829300;29;114426;-74
2023/02/11 03:09:57;;;;;;;18.55;7.47;;;;;;;10.03;57.36;103304.78;4832339;29;124291;-75
2023/02/11 03:12:28;;;;;;;15.65;7.32;;;;;;;10.02;57.47;103297.72;4830952;29;123786;-75
2023/02/11 03:14:57;;;;;;;18.30;9.23;;;;;;;10.00;57.45;103299.50;4852159;28;113832;-74
2023/02/11 03:17:26;;;;;;;16.05;7.30;;;;;;;9.99;57.69;103303.03;4833940;29;113890;-74
2023/02/11 03:19:56;;;;;;;15.02;7.60;;;;;;;9.99;57.65;103308.34;4831675;29;123141;-76
2023/02/11 03:22:33;;;;;;;17.50;7.60;;;;;;;9.97;57.32;103299.53;4835877;29;123982;-73
2023/02/11 03:25:01;;;;;;;18.65;7.32;;;;;;;9.97;57.86;103303.03;4831194;29;114148;-73
2023/02/11 03:27:40;;;;;;;18.73;7.70;;;;;;;9.94;57.48;103298.66;4839026;29;113114;-74
2023/02/11 03:30:17;;;;;;;18.55;7.65;;;;;;;9.93;57.50;103307.47;4822108;29;124400;-74
2023/02/11 03:32:52;;;;;;;19.10;7.75;;;;;;;9.93;57.77;103309.25;4831192;29;123356;-73
2023/02/11 03:35:47;;;;;;;16.40;7.20;;;;;;;9.88;57.71;103311.88;4831345;29;115710;-73
2023/02/11 03:38:27;;;;;;;19.67;7.30;;;;;;;9.87;57.67;103315.44;4830012;29;114742;-75
2023/02/11 03:40:55;;;;;;;16.67;7.78;;;;;;;9.85;57.65;103309.25;4834387;29;125370;-74
2023/02/11 03:43:34;;;;;;;16.98;7.03;;;;;;;9.83;57.70;103303.09;4832628;29;123320;-74
2023/02/11 03:46:02;;;;;;;15.15;7.00;;;;;;;9.81;57.77;103304.81;4826741;29;114335;-75
2023/02/11 03:48:33;;;;;;;19.83;7.68;;;;;;;9.80;57.58;103297.78;4829841;29;114134;-75
2023/02/11 03:51:05;;;;;;;15.15;7.10;;;;;;;9.78;57.86;103296.91;4816496;29;125890;-75
2023/02/11 03:53:32;;;;;;;15.70;6.68;;;;;;;9.78;58.06;103288.97;4829779;29;123978;-75
2023/02/11 03:56:04;;;;;;;17.23;7.57;;;;;;;9.76;58.00;103288.09;4829553;29;114760;-74
2023/02/11 03:58:31;;;;;;;18.58;7.43;;;;;;;9.75;57.93;103283.69;4818663;29;113346;-73
2023/02/11 04:01:01;;;;;;;14.75;7.38;;;;;;;9.72;57.96;103289.00;4830084;29;124395;-73
2023/02/11 04:03:28;;;;;;;15.35;7.28;;;;;;;9.70;57.81;103285.44;4825854;29;124270;-73
2023/02/11 04:05:55;;;;;;;15.35;7.25;;;;;;;9.70;57.92;103281.06;4834593;29;114152;-73
2023/02/11 04:08:22;;;;;;;16.77;7.60;;;;;;;9.69;57.89;103274.00;4825408;29;113066;-75
2023/02/11 04:10:50;;;;;;;17.10;7.60;;;;;;;9.69;57.93;103267.81;4828027;29;124088;-73
2023/02/11 04:13:17;;;;;;;17.77;7.90;;;;;;;9.67;57.98;103264.31;4836070;29;123874;-73
2023/02/11 04:15:44;;;;;;;15.68;7.30;;;;;;;9.67;58.23;103259.00;4831596;29;114010;-73
2023/02/11 04:18:14;;;;;;;15.18;7.40;;;;;;;9.65;58.30;103260.78;4817560;29;113569;-73
2023/02/11 04:20:42;;;;;;;16.13;7.95;;;;;;;9.64;58.00;103269.59;4830424;29;123224;-74
2023/02/11 04:23:09;;;;;;;16.67;7.72;;;;;;;9.64;58.27;103280.19;4826234;29;123616;-74
2023/02/11 04:25:37;;;;;;;16.60;7.47;;;;;;;9.64;58.32;103280.19;4829299;29;114595;-74
2023/02/11 04:28:04;;;;;;;17.50;7.72;;;;;;;9.65;58.32;103276.66;4830630;29;115003;-74
2023/02/11 04:30:32;;;;;;;19.98;7.68;;;;;;;9.65;58.13;103287.25;4834843;29;124043;-74
2023/02/11 04:32:59;;;;;;;16.55;7.55;;;;;;;9.65;58.25;103297.81;4826420;29;122780;-74
2023/02/11 04:35:26;;;;;;;18.92;7.55;;;;;;;9.65;58.32;103296.06;4831731;29;114364;-74
2023/02/11 04:37:53;;;;;;;16.38;7.53;;;;;;;9.65;58.46;103297.81;4837668;29;112801;-75
2023/02/11 04:40:20;;;;;;;14.63;7.13;;;;;;;9.66;58.52;103300.47;4835449;29;124156;-74
2023/02/11 04:42:48;;;;;;;13.48;7.05;;;;;;;9.68;58.54;103293.41;4838037;29;124519;-74
2023/02/11 04:45:15;;;;;;;19.02;7.53;;;;;;;9.70;58.81;103293.38;4815789;29;114197;-74
2023/02/11 04:47:42;;;;;;;19.13;7.65;;;;;;;9.72;58.64;103294.28;4834763;29;114111;-75
2023/02/11 04:50:10;;;;;;;16.38;7.47;;;;;;;9.72;58.37;103294.28;4829149;29;124105;-75
2023/02/11 04:52:37;;;;;;;20.38;7.85;;;;;;;9.75;58.65;103287.19;4838093;29;124550;-74
2023/02/11 04:55:05;;;;;;;16.38;8.00;;;;;;;9.77;58.42;103296.91;4828600;29;115065;-74
2023/02/11 04:57:32;;;;;;;14.15;7.20;;;;;;;9.77;58.44;103297.78;4828599;29;113343;-74
2023/02/11 05:00:00;;;;;;;15.40;7.28;;;;;;;9.79;58.42;103301.31;4832115;29;124476;-74
2023/02/11 05:02:27;;;;;;;18.77;7.13;;;;;;;9.79;58.52;103296.00;4833042;29;124613;-79
2023/02/11 05:04:54;;;;;;;23.20;8.25;;;;;;;9.80;58.68;103297.78;4820124;29;111153;-74
2023/02/11 05:07:21;;;;;;;16.55;7.50;;;;;;;9.82;58.82;103290.72;4832567;29;113401;-75
2023/02/11 05:09:49;;;;;;;13.27;7.38;;;;;;;9.84;58.64;103294.25;4827650;29;124706;-74
2023/02/11 05:12:16;;;;;;;15.70;7.65;;;;;;;9.86;58.65;103295.13;4833602;29;123454;-74
2023/02/11 05:14:43;;;;;;;17.48;7.32;;;;;;;9.88;58.65;103295.13;4833227;29;115051;-75
2023/02/11 05:17:10;;;;;;;16.75;7.80;;;;;;;9.87;58.59;103294.25;4833619;29;114757;-74
2023/02/11 05:19:37;;;;;;;18.98;7.60;;;;;;;9.87;58.82;103288.97;4830018;29;123949;-74
2023/02/11 05:22:06;;;;;;;16.35;7.88;;;;;;;9.89;58.72;103281.88;4834342;29;123749;-74
2023/02/11 05:24:33;;;;;;;18.55;8.10;;;;;;;9.90;58.61;103280.13;4828773;29;114185;-74
2023/02/11 05:27:01;;;;;;;17.15;8.00;;;;;;;9.90;58.44;103273.03;4826286;29;114124;-74
2023/02/11 05:29:28;;;;;;;18.30;8.10;;;;;;;9.91;58.69;103280.13;4832581;29;124164;-79
2023/02/11 05:31:58;;;;;;;16.35;7.93;;;;;;;9.92;58.87;103276.56;4831169;29;123953;-74
2023/02/11 05:34:25;;;;;;;20.27;8.27;;;;;;;9.94;58.66;103277.47;4824261;29;114221;-73
2023/02/11 05:36:53;;;;;;;14.15;7.80;;;;;;;9.94;58.75;103280.13;4827587;29;114498;-74
2023/02/11 05:39:20;;;;;;;18.38;8.45;;;;;;;9.97;58.63;103284.50;4839011;29;123677;-73
2023/02/11 05:41:47;;;;;;;21.08;8.20;;;;;;;9.98;58.87;103285.38;4831896;29;123931;-73
2023/02/11 05:44:14;;;;;;;22.90;8.45;;;;;;;9.99;58.61;103279.22;4816262;29;113629;-73
2023/02/11 05:46:41;;;;;;;19.42;8.48;;;;;;;9.99;58.84;103287.16;4834092;29;114516;-73
2023/02/11 05:49:09;;;;;;;17.65;8.23;;;;;;;9.99;59.02;103282.75;4835149;29;124144;-73
2023/02/11 05:51:36;;;;;;;22.58;9.32;;;;;;;9.99;58.80;103287.16;4829262;29;124325;-73
2023/02/11 05:54:03;;;;;;;20.33;8.27;;;;;;;10.01;59.13;103288.03;4829482;29;114720;-73
2023/02/11 05:56:31;;;;;;;16.58;8.45;;;;;;;10.03;58.90;103294.19;4833574;29;113849;-74
2023/02/11 05:58:59;;;;;;;22.98;9.15;;;;;;;10.03;58.88;103299.50;4830021;29;124673;-74
2023/02/11 06:01:26;;;;;;;17.88;8.55;;;;;;;10.04;59.05;103290.66;4834633;29;123779;-73
2023/02/11 06:03:53;;;;;;;19.05;8.80;;;;;;;10.03;58.70;103288.91;4831132;29;115206;-73
2023/02/11 06:06:21;;;;;;;17.58;8.98;;;;;;;10.05;58.77;103281.84;4831928;29;115448;-74
2023/02/11 06:08:48;;;;;;;22.02;8.73;;;;;;;10.05;58.71;103282.72;4830904;29;124306;-74
2023/02/11 06:11:16;;;;;;;18.77;9.10;;;;;;;10.05;59.22;103292.44;4832835;29;124213;-74
2023/02/11 06:13:44;;;;;;;19.50;9.50;;;;;;;10.06;58.91;103294.19;4834239;29;114929;-74
2023/02/11 06:16:11;;;;;;;18.85;8.77;;;;;;;10.07;58.88;103302.13;4826845;29;114476;-74
2023/02/11 06:18:38;;;;;;;20.55;9.70;;;;;;;10.09;59.14;103302.13;4835546;29;124089;-74
2023/02/11 06:21:07;;;;;;;19.95;8.90;;;;;;;10.09;58.85;103297.69;4829283;29;123645;-74
2023/02/11 06:23:35;;;;;;;23.88;9.25;;;;;;;10.11;58.80;103300.34;4827622;29;114465;-74
2023/02/11 06:26:06;;;;;;;20.42;9.13;;;;;;;10.11;59.04;103297.69;4835963;29;114320;-73
2023/02/11 06:28:34;;;;;;;22.67;10.02;;;;;;;10.12;59.04;103304.75;4827928;29;124180;-72
2023/02/11 06:31:06;;;;;;;18.77;9.48;;;;;;;10.12;59.02;103305.63;4830664;29;123961;-72
2023/02/11 06:33:34;;;;;;;21.00;9.68;;;;;;;10.13;59.03;103306.50;4828962;29;114311;-74
2023/02/11 06:36:02;;;;;;;23.75;10.18;;;;;;;10.13;59.13;103309.16;4829289;29;113961;-73
2023/02/11 06:38:30;;;;;;;21.38;9.43;;;;;;;10.13;59.02;103311.81;4831594;29;124551;-73
2023/02/11 06:40:57;;;;;;;20.20;9.32;;;;;;;10.14;58.78;103313.59;4830589;29;123892;-73
2023/02/11 06:43:24;;;;;;;17.77;9.63;;;;;;;10.13;58.80;103309.16;4832010;29;114301;-73
2023/02/11 06:45:53;;;;;;;21.55;9.68;;;;;;;10.14;58.97;103297.69;4852952;28;113443;-73
2023/02/11 06:48:22;;;;;;;22.95;10.27;;;;;;;10.14;58.85;103308.28;4834096;29;124729;-73
2023/02/11 06:50:49;;;;;;;24.48;10.80;;;;;;;10.14;58.92;103301.22;4833563;29;123982;-73
2023/02/11 06:53:16;;;;;;;23.02;10.55;;;;;;;10.14;59.22;103297.69;4832609;29;114750;-72
2023/02/11 06:55:44;;;;;;;21.20;10.90;;;;;;;10.14;59.10;103303.88;4836576;29;115200;-73
2023/02/11 06:58:11;;;;;;;22.40;10.45;;;;;;;10.17;59.14;103308.28;4830335;29;124830;-73
2023/02/11 07:00:38;;;;;;;23.70;11.43;;;;;;;10.17;59.11;103313.59;4828687;29;123642;-73
2023/02/11 07:03:06;;;;;;;26.35;11.07;;;;;;;10.18;59.16;103306.50;4832773;29;116130;-73
2023/02/11 07:05:33;;;;;;;23.25;11.82;;;;;;;10.19;59.11;103317.09;4831912;29;113975;-73
2023/02/11 07:08:01;;;;;;;25.73;11.20;;;;;;;10.18;58.98;103310.03;4826769;29;124256;-73
2023/02/11 07:10:28;;;;;;;24.10;11.65;;;;;;;10.18;59.27;103312.69;4826851;29;124658;-75
2023/02/11 07:12:55;;;;;;;29.90;11.13;;;;;;;10.18;59.44;103314.47;4830879;29;114341;-75
2023/02/11 07:15:25;;;;;;;26.95;11.48;;;;;;;10.19;59.18;103317.09;4826543;29;114226;-74
2023/02/11 07:17:52;;;;;;;23.75;11.68;;;;;;;10.19;59.30;103332.09;4828379;29;123452;-74
2023/02/11 07:20:19;;;;;;;23.98;11.80;;;;;;;10.19;59.04;103321.50;4835637;29;124055;-75
2023/02/11 07:22:47;;;;;;;27.45;12.10;;;;;;;10.17;59.35;103329.47;4814336;29;114033;-75
2023/02/11 07:25:14;;;;;;;22.35;11.50;;;;;;;10.19;59.25;103333.00;4834104;29;114487;-75
2023/02/11 07:27:42;;;;;;;27.67;12.02;;;;;;;10.21;59.25;103331.22;4835228;29;124138;-75
2023/02/11 07:30:09;;;;;;;23.98;11.50;;;;;;;10.22;59.25;103332.97;4837402;29;123628;-73
2023/02/11 07:32:37;;;;;;;27.17;12.07;;;;;;;10.23;59.40;103329.44;4851871;28;113272;-74
2023/02/11 07:35:04;;;;;;;25.25;13.02;;;;;;;10.24;59.20;103333.84;4832722;29;113974;-74
2023/02/11 07:37:35;;;;;;;26.48;12.30;;;;;;;10.24;59.14;103336.47;4835149;29;124599;-74
2023/02/11 07:40:02;;;;;;;26.55;12.73;;;;;;;10.25;59.32;103332.97;4832827;29;124573;-74
2023/02/11 07:42:30;;;;;;;26.55;13.27;;;;;;;10.26;59.37;103340.00;4835562;29;115689;-74
2023/02/11 07:44:57;;;;;;;23.40;12.20;;;;;;;10.27;59.51;103346.22;4826982;29;115582;-75
2023/02/11 07:47:24;;;;;;;27.38;12.90;;;;;;;10.28;59.44;103353.25;4829309;29;123416;-75
2023/02/11 07:49:52;;;;;;;24.50;10.45;;;;;;;10.29;59.25;103358.56;4833237;29;124343;-75
2023/02/11 07:52:22;;;;;;;34.05;10.40;;;;;;;10.31;59.36;103355.94;4835114;29;114485;-76
2023/02/11 07:54:50;;;;;;;23.63;10.50;;;;;;;10.30;59.42;103347.13;4837230;29;112922;-75
2023/02/11 07:57:17;;;;;;;31.67;13.00;;;;;;;10.33;59.29;103352.38;4832117;29;124356;-74
2023/02/11 07:59:44;;;;;;;26.98;13.43;;;;;;;10.36;59.42;103350.59;4836146;29;124478;-75
2023/02/11 08:02:11;;;;;;;27.60;14.13;;;;;;;10.37;59.55;103352.38;4832141;29;114601;-75
2023/02/11 08:04:39;;;;;;;30.27;13.90;;;;;;;10.38;59.38;103356.78;4834071;29;113314;-74
2023/02/11 08:07:06;;;;;;;33.42;14.45;;;;;;;10.40;59.36;103362.97;4833137;29;124796;-72
2023/02/11 08:09:33;;;;;;;31.20;14.18;;;;;;;10.41;59.30;103359.44;4833005;29;124377;-72
2023/02/11 08:12:01;;;;;;;30.02;14.45;;;;;;;10.42;59.42;103358.56;4830054;29;114362;-72
2023/02/11 08:14:28;;;;;;;30.02;14.38;;;;;;;10.43;59.20;103362.94;4832774;29;113740;-73
2023/02/11 08:16:55;;;;;;;28.35;14.15;;;;;;;10.42;59.34;103362.06;4820558;29;124121;-72
2023/02/11 08:19:22;;;;;;;37.17;15.02;;;;;;;10.42;59.47;103371.81;4842245;28;124216;-73
2023/02/11 08:21:53;;;;;;;28.50;14.77;;;;;;;10.44;59.56;103370.03;4826231;29;113630;-73
2023/02/11 08:24:20;;;;;;;28.23;13.70;;;;;;;10.47;59.48;103367.34;4838229;29;114663;-72
2023/02/11 08:26:48;;;;;;;33.28;15.23;;;;;;;10.48;59.60;103371.78;4816439;29;123319;-72
2023/02/11 08:29:15;;;;;;;30.38;15.05;;;;;;;10.51;59.47;103366.47;4835873;29;123899;-73
2023/02/11 08:31:46;;;;;;;34.75;15.25;;;;;;;10.52;59.50;103368.22;4852681;29;115207;-72
2023/02/11 08:34:17;;;;;;;34.22;15.43;;;;;;;10.54;59.60;103365.56;4846309;29;115802;-73
2023/02/11 08:36:46;;;;;;;36.80;16.15;;;;;;;10.55;59.49;103373.50;4819607;29;124096;-73
2023/02/11 08:39:18;;;;;;;36.60;15.43;;;;;;;10.57;59.46;103365.53;4833404;29;124736;-73
2023/02/11 08:41:49;;;;;;;36.10;15.43;;;;;;;10.58;59.62;103373.47;4857701;29;114238;-72
2023/02/11 08:44:19;;;;;;;33.03;16.17;;;;;;;10.61;59.57;103378.78;4842184;29;114325;-73
2023/02/11 08:46:47;;;;;;;34.75;15.80;;;;;;;10.62;59.50;103372.56;4854043;29;124054;-73
2023/02/11 08:49:15;;;;;;;35.70;16.55;;;;;;;10.64;59.41;103373.47;4825601;29;123804;-73
2023/02/11 08:51:43;;;;;;;38.08;16.67;;;;;;;10.67;59.61;103381.38;4827488;29;114225;-73
2023/02/11 08:54:10;;;;;;;32.58;16.13;;;;;;;10.71;59.66;103379.59;4819263;29;113809;-73
2023/02/11 08:56:38;;;;;;;34.33;16.23;;;;;;;10.73;59.75;103377.84;4825495;29;124188;-73
2023/02/11 08:59:08;;;;;;;35.22;16.33;;;;;;;10.75;59.46;103377.81;4834670;29;124339;-73
2023/02/11 09:01:35;;;;;;;39.13;17.55;;;;;;;10.77;59.60;103384.00;4837056;29;114585;-73
2023/02/11 09:04:03;;;;;;;40.25;17.50;;;;;;;10.79;59.71;103382.22;4835706;28;114570;-73
2023/02/11 09:06:30;;;;;;;34.78;17.08;;;;;;;10.84;59.71;103380.44;4822133;29;124113;-73
2023/02/11 09:08:58;;;;;;;36.80;17.17;;;;;;;10.87;59.71;103386.59;4836102;29;124274;-74
2023/02/11 09:11:29;;;;;;;39.50;17.65;;;;;;;10.90;59.72;103385.69;4811559;29;114266;-74
2023/02/11 09:13:57;;;;;;;38.67;18.02;;;;;;;10.91;59.52;103382.16;4826376;29;113866;-73
2023/02/11 09:16:28;;;;;;;38.30;17.13;;;;;;;10.94;59.68;103391.88;4835639;29;124042;-73
2023/02/11 09:18:57;;;;;;;39.63;17.90;;;;;;;10.96;59.76;103393.59;4833474;29;123292;-73
2023/02/11 09:21:25;;;;;;;35.63;17.90;;;;;;;10.99;59.45;103396.25;4846036;28;114159;-73
2023/02/11 09:23:53;;;;;;;38.53;18.30;;;;;;;11.01;59.81;103402.44;4824406;29;117797;-74
2023/02/11 09:26:23;;;;;;;39.00;18.05;;;;;;;11.06;59.63;103400.63;4828184;29;123746;-74
2023/02/11 09:28:50;;;;;;;36.05;18.00;;;;;;;11.10;59.78;103410.34;4832512;29;123677;-73
2023/02/11 09:31:21;;;;;;;44.03;18.77;;;;;;;11.15;59.73;103406.75;4812150;29;113525;-77
2023/02/11 09:33:51;;;;;;;40.45;18.60;;;;;;;11.17;59.55;103404.97;4810088;29;113295;-77
2023/02/11 09:36:24;;;;;;;40.58;18.40;;;;;;;11.20;59.59;103407.63;4827118;29;123961;-77
2023/02/11 09:38:53;;;;;;;35.60;18.35;;;;;;;11.22;59.74;103403.19;4832104;29;124463;-77
2023/02/11 09:41:36;;;;;;;40.25;18.38;;;;;;;11.25;59.60;103419.09;4833431;29;113723;-77
2023/02/11 09:44:06;;;;;;;36.58;18.20;;;;;;;11.27;59.67;103417.31;4825861;29;114047;-78
2023/02/11 09:46:38;;;;;;;38.83;18.08;;;;;;;11.30;59.69;103417.28;4822171;29;124315;-77
2023/02/11 09:49:18;;;;;;;44.40;18.92;;;;;;;11.31;59.43;103419.06;4830124;29;124272;-76
2023/02/11 09:51:54;;;;;;;36.88;17.42;;;;;;;11.34;59.63;103424.34;4829485;29;113923;-76
2023/02/11 09:54:30;;;;;;;;;;;;;;;11.35;59.36;103431.41;4827133;29;113447;-76
2023/02/11 09:56:57;;;;;;;;;;;;;;;11.37;59.29;103429.63;4846316;29;124435;-78
2023/02/11 09:59:24;;;;;;;33.97;17.55;;;;;;;11.38;59.40;103420.78;4849853;29;124631;-77
2023/02/11 10:02:05;;;;;;;35.75;18.85;;;;;;;11.40;59.52;103424.28;4837054;29;115729;-78
2023/02/11 10:05:06;;;;;;;41.28;18.98;;;;;;;11.41;59.40;103431.34;4840863;29;112901;-77
2023/02/11 10:07:50;;;;;;;38.92;18.45;;;;;;;11.45;59.44;103433.13;4821506;29;123705;-78
2023/02/11 10:10:34;;;;;;;38.35;18.38;;;;;;;11.49;59.53;103441.94;4837659;29;123660;-78
2023/02/11 10:13:31;;;;;;;38.13;18.80;;;;;;;11.53;59.58;103445.41;4846924;28;114641;-76
2023/02/11 10:16:12;;;;;;;37.35;18.58;;;;;;;11.58;59.77;103448.94;4849400;28;114562;-77
2023/02/11 10:18:55;;;;;;;39.60;18.88;;;;;;;11.62;59.58;103455.97;4836674;29;124159;-77
2023/02/11 10:21:46;;;;;;;34.55;18.40;;;;;;;11.66;59.60;103457.75;4842869;28;123317;-77
2023/02/11 10:24:16;;;;;;;40.05;19.30;;;;;;;11.69;59.37;103449.72;4831944;29;114403;-78
2023/02/11 10:26:44;;;;;;;35.85;17.92;;;;;;;11.73;59.48;103464.75;4827660;29;114270;-77
2023/02/11 10:29:37;;;;;;;37.80;19.00;;;;;;;11.75;59.40;103456.78;4827112;29;124834;-79
2023/02/11 10:32:25;;;;;;;37.30;18.35;;;;;;;11.77;59.38;103466.50;4824985;29;123076;-77
2023/02/11 10:34:57;;;;;;;42.53;19.23;;;;;;;11.79;59.33;103472.69;4833043;29;114736;-77
2023/02/11 10:37:24;;;;;;;39.72;18.27;;;;;;;11.81;59.42;103473.56;4832852;29;114093;-78
2023/02/11 10:39:51;;;;;;;42.20;19.92;;;;;;;11.83;59.52;103474.41;4822359;29;124933;-78
2023/02/11 10:42:19;;;;;;;43.78;20.58;;;;;;;11.85;59.28;103469.97;4834761;29;124752;-76
2023/02/11 10:44:58;;;;;;;43.35;21.15;;;;;;;11.88;59.44;103474.38;4826542;29;113485;-76
2023/02/11 10:47:36;;;;;;;37.47;20.27;;;;;;;11.90;59.34;103471.72;4816775;29;114499;-77
2023/02/11 10:50:33;;;;;;;39.78;20.33;;;;;;;11.88;59.35;103472.63;4832917;29;124107;-78
2023/02/11 10:53:19;;;;;;;41.22;20.92;;;;;;;11.88;59.36;103469.06;4827287;29;124163;-78
2023/02/11 10:55:54;;;;;;;;;;;;;;;11.85;59.08;103469.97;4837678;29;114512;-78
2023/02/11 10:58:29;;;;;;;35.78;19.30;;;;;;;11.84;59.22;103478.81;4862884;28;112955;-78
2023/02/11 11:00:58;;;;;;;;;;;;;;;11.81;59.17;103478.84;4838157;29;124437;-77
2023/02/11 11:03:31;;;;;;;40.85;19.95;;;;;;;11.81;59.16;103478.84;4840770;29;123769;-77
2023/02/11 11:06:00;;;;;;;38.30;19.50;;;;;;;11.82;59.27;103485.91;4838666;29;114116;-76
2023/02/11 11:08:41;;;;;;;38.38;20.55;;;;;;;11.84;59.32;103484.13;4838731;29;115551;-76
2023/02/11 11:11:29;;;;;;;40.13;20.30;;;;;;;11.86;59.37;103490.31;4846655;29;124454;-76
2023/02/11 11:13:58;;;;;;;38.38;21.67;;;;;;;11.90;59.46;103492.97;4822853;29;123971;-76
2023/02/11 11:16:31;;;;;;;40.58;21.35;;;;;;;11.92;59.42;103491.19;4809638;29;113299;-76
2023/02/11 11:19:05;;;;;;;38.45;20.60;;;;;;;11.93;59.49;103487.66;4817461;29;115322;-76
2023/02/11 11:21:39;;;;;;;44.88;21.10;;;;;;;11.98;59.42;103486.72;4834064;29;124013;-77
2023/02/11 11:24:32;;;;;;;38.45;20.05;;;;;;;12.00;59.55;103479.63;4831427;29;124089;-77
2023/02/11 11:27:05;;;;;;;41.95;21.58;;;;;;;12.03;59.36;103491.97;4829444;29;114186;-76
2023/02/11 11:29:45;;;;;;;42.65;21.45;;;;;;;12.07;59.57;103480.44;4828237;29;113436;-75
2023/02/11 11:32:28;;;;;;;40.55;22.33;;;;;;;12.11;59.81;103486.59;4834520;29;124027;-76
2023/02/11 11:34:59;;;;;;;44.35;21.45;;;;;;;12.18;59.58;103483.00;4819788;29;121914;-80